sensor_id;sensor_type;location;lat;lon;timestamp;temperature;humidity
53368;DHT22;39271;45.618;20.024;2022-07-23T00:00:12;615.10;1689.60
53368;DHT22;39271;45.618;20.024;2022-07-23T00:02:41;615.00;1689.60
53368;DHT22;39271;45.618;20.024;2022-07-23T00:05:13;615.00;1715.20
53368;DHT22;39271;45.618;20.024;2022-07-23T00:07:39;615.00;1689.60
53368;DHT22;39271;45.618;20.024;2022-07-23T00:10:06;615.00;1715.20
53368;DHT22;39271;45.618;20.024;2022-07-23T00:12:33;614.90;1689.60
53368;DHT22;39271;45.618;20.024;2022-07-23T00:14:59;615.00;1715.20
53368;DHT22;39271;45.618;20.024;2022-07-23T00:17:34;614.90;1715.20
53368;DHT22;39271;45.618;20.024;2022-07-23T00:20:00;614.80;1715.20
53368;DHT22;39271;45.618;20.024;2022-07-23T00:22:25;614.80;1715.20
53368;DHT22;39271;45.618;20.024;2022-07-23T00:24:56;614.80;1715.20
53368;DHT22;39271;45.618;20.024;2022-07-23T00:27:25;615.00;1740.80
53368;DHT22;39271;45.618;20.024;2022-07-23T00:30:00;614.60;1740.80
53368;DHT22;39271;45.618;20.024;2022-07-23T00:32:25;614.60;1740.80
53368;DHT22;39271;45.618;20.024;2022-07-23T00:34:51;614.60;1740.80
53368;DHT22;39271;45.618;20.024;2022-07-23T00:37:20;614.50;1740.80
53368;DHT22;39271;45.618;20.024;2022-07-23T00:39:48;614.50;1792.00
53368;DHT22;39271;45.618;20.024;2022-07-23T00:42:17;614.50;1766.40
53368;DHT22;39271;45.618;20.024;2022-07-23T00:44:45;614.40;1766.40
53368;DHT22;39271;45.618;20.024;2022-07-23T00:47:12;614.40;1817.60
53368;DHT22;39271;45.618;20.024;2022-07-23T00:49:38;614.40;1766.40
53368;DHT22;39271;45.618;20.024;2022-07-23T00:52:13;614.40;1766.40
53368;DHT22;39271;45.618;20.024;2022-07-23T00:54:39;614.40;1766.40
53368;DHT22;39271;45.618;20.024;2022-07-23T00:57:04;614.40;1740.80
53368;DHT22;39271;45.618;20.024;2022-07-23T00:59:37;589.70;1766.40
53368;DHT22;39271;45.618;20.024;2022-07-23T01:02:09;614.40;1766.40
53368;DHT22;39271;45.618;20.024;2022-07-23T01:04:35;614.40;1766.40
53368;DHT22;39271;45.618;20.024;2022-07-23T01:07:10;614.40;1766.40
53368;DHT22;39271;45.618;20.024;2022-07-23T01:09:41;614.40;1740.80
53368;DHT22;39271;45.618;20.024;2022-07-23T01:12:07;589.70;1766.40
53368;DHT22;39271;45.618;20.024;2022-07-23T01:14:33;589.60;1766.40
53368;DHT22;39271;45.618;20.024;2022-07-23T01:17:05;589.70;1766.40
53368;DHT22;39271;45.618;20.024;2022-07-23T01:19:35;589.60;1766.40
53368;DHT22;39271;45.618;20.024;2022-07-23T01:22:03;589.60;1792.00
53368;DHT22;39271;45.618;20.024;2022-07-23T01:24:29;589.60;1792.00
53368;DHT22;39271;45.618;20.024;2022-07-23T01:26:58;589.50;1792.00
53368;DHT22;39271;45.618;20.024;2022-07-23T01:29:26;589.50;1792.00
53368;DHT22;39271;45.618;20.024;2022-07-23T01:31:52;589.60;1792.00
53368;DHT22;39271;45.618;20.024;2022-07-23T01:34:24;589.60;1792.00
53368;DHT22;39271;45.618;20.024;2022-07-23T01:36:52;589.50;1792.00
53368;DHT22;39271;45.618;20.024;2022-07-23T01:39:18;589.50;1792.00
53368;DHT22;39271;45.618;20.024;2022-07-23T01:41:44;589.40;1792.00
53368;DHT22;39271;45.618;20.024;2022-07-23T01:44:12;589.40;1817.60
53368;DHT22;39271;45.618;20.024;2022-07-23T01:46:38;589.40;1843.20
53368;DHT22;39271;45.618;20.024;2022-07-23T01:49:04;589.40;1817.60
53368;DHT22;39271;45.618;20.024;2022-07-23T01:51:33;589.40;1817.60
53368;DHT22;39271;45.618;20.024;2022-07-23T01:53:58;589.30;1843.20
53368;DHT22;39271;45.618;20.024;2022-07-23T01:56:24;589.30;1843.20
53368;DHT22;39271;45.618;20.024;2022-07-23T01:58:50;589.30;1817.60
53368;DHT22;39271;45.618;20.024;2022-07-23T02:01:18;589.30;1817.60
53368;DHT22;39271;45.618;20.024;2022-07-23T02:03:44;589.20;1817.60
53368;DHT22;39271;45.618;20.024;2022-07-23T02:06:10;589.20;1817.60
53368;DHT22;39271;45.618;20.024;2022-07-23T02:08:35;589.20;1817.60
53368;DHT22;39271;45.618;20.024;2022-07-23T02:11:01;589.10;1817.60
53368;DHT22;39271;45.618;20.024;2022-07-23T02:13:27;589.10;1817.60
53368;DHT22;39271;45.618;20.024;2022-07-23T02:15:54;589.10;1843.20
53368;DHT22;39271;45.618;20.024;2022-07-23T02:18:22;589.00;1843.20
53368;DHT22;39271;45.618;20.024;2022-07-23T02:20:48;589.00;1843.20
53368;DHT22;39271;45.618;20.024;2022-07-23T02:23:17;589.00;1843.20
53368;DHT22;39271;45.618;20.024;2022-07-23T02:25:48;588.90;1868.80
53368;DHT22;39271;45.618;20.024;2022-07-23T02:28:17;588.80;1868.80
53368;DHT22;39271;45.618;20.024;2022-07-23T02:30:45;588.80;1894.40
53368;DHT22;39271;45.618;20.024;2022-07-23T02:33:14;588.80;1868.80
53368;DHT22;39271;45.618;20.024;2022-07-23T02:35:40;564.10;1894.40
53368;DHT22;39271;45.618;20.024;2022-07-23T02:38:06;564.10;1868.80
53368;DHT22;39271;45.618;20.024;2022-07-23T02:40:31;564.10;1868.80
53368;DHT22;39271;45.618;20.024;2022-07-23T02:42:57;564.10;1894.40
53368;DHT22;39271;45.618;20.024;2022-07-23T02:45:23;588.80;1868.80
53368;DHT22;39271;45.618;20.024;2022-07-23T02:47:52;588.80;1868.80
53368;DHT22;39271;45.618;20.024;2022-07-23T02:50:20;564.10;1868.80
53368;DHT22;39271;45.618;20.024;2022-07-23T02:52:49;564.10;1868.80
53368;DHT22;39271;45.618;20.024;2022-07-23T02:55:14;564.00;1894.40
53368;DHT22;39271;45.618;20.024;2022-07-23T02:57:43;564.00;1894.40
53368;DHT22;39271;45.618;20.024;2022-07-23T03:00:09;564.10;1894.40
53368;DHT22;39271;45.618;20.024;2022-07-23T03:02:38;564.00;1920.00
53368;DHT22;39271;45.618;20.024;2022-07-23T03:42:09;564.00;1920.00
53368;DHT22;39271;45.618;20.024;2022-07-23T03:44:35;563.80;1945.60
53368;DHT22;39271;45.618;20.024;2022-07-23T03:47:03;563.80;1945.60
53368;DHT22;39271;45.618;20.024;2022-07-23T03:49:29;564.10;1945.60
53368;DHT22;39271;45.618;20.024;2022-07-23T03:51:55;563.80;1945.60
53368;DHT22;39271;45.618;20.024;2022-07-23T03:54:21;563.80;1945.60
53368;DHT22;39271;45.618;20.024;2022-07-23T03:56:49;563.80;1945.60
53368;DHT22;39271;45.618;20.024;2022-07-23T03:59:20;564.00;1945.60
53368;DHT22;39271;45.618;20.024;2022-07-23T04:01:55;563.90;1945.60
53368;DHT22;39271;45.618;20.024;2022-07-23T04:04:24;563.80;1945.60
53368;DHT22;39271;45.618;20.024;2022-07-23T04:06:52;563.80;1945.60
53368;DHT22;39271;45.618;20.024;2022-07-23T04:09:18;564.00;1971.20
53368;DHT22;39271;45.618;20.024;2022-07-23T04:11:46;564.10;1996.80
53368;DHT22;39271;45.618;20.024;2022-07-23T04:14:12;588.80;1996.80
53368;DHT22;39271;45.618;20.024;2022-07-23T04:16:39;588.80;1996.80
53368;DHT22;39271;45.618;20.024;2022-07-23T04:19:05;588.80;1971.20
53368;DHT22;39271;45.618;20.024;2022-07-23T04:21:36;588.80;1945.60
53368;DHT22;39271;45.618;20.024;2022-07-23T04:24:08;588.90;1996.80
53368;DHT22;39271;45.618;20.024;2022-07-23T04:26:33;588.90;1996.80
53368;DHT22;39271;45.618;20.024;2022-07-23T04:28:59;589.00;1996.80
53368;DHT22;39271;45.618;20.024;2022-07-23T04:31:28;589.10;1996.80
53368;DHT22;39271;45.618;20.024;2022-07-23T04:36:29;589.50;1971.20
53368;DHT22;39271;45.618;20.024;2022-07-23T04:39:00;589.40;1996.80
53368;DHT22;39271;45.618;20.024;2022-07-23T04:41:32;589.40;1996.80
53368;DHT22;39271;45.618;20.024;2022-07-23T04:43:58;589.50;1996.80
53368;DHT22;39271;45.618;20.024;2022-07-23T04:46:44;589.60;1971.20
53368;DHT22;39271;45.618;20.024;2022-07-23T04:49:16;589.70;2022.40
53368;DHT22;39271;45.618;20.024;2022-07-23T04:51:44;614.40;2022.40
53368;DHT22;39271;45.618;20.024;2022-07-23T04:54:09;614.40;1996.80
53368;DHT22;39271;45.618;20.024;2022-07-23T04:56:41;614.60;2022.40
53368;DHT22;39271;45.618;20.024;2022-07-23T05:01:34;615.00;1971.20
53368;DHT22;39271;45.618;20.024;2022-07-23T05:06:29;615.30;1894.40
53368;DHT22;39271;45.618;20.024;2022-07-23T05:08:54;615.20;1894.40
53368;DHT22;39271;45.618;20.024;2022-07-23T05:11:23;615.30;1920.00
53368;DHT22;39271;45.618;20.024;2022-07-23T05:13:49;615.30;1945.60
53368;DHT22;39271;45.618;20.024;2022-07-23T05:16:22;640.10;1920.00
53368;DHT22;39271;45.618;20.024;2022-07-23T05:18:48;640.20;1920.00
53368;DHT22;39271;45.618;20.024;2022-07-23T05:21:19;640.30;1920.00
53368;DHT22;39271;45.618;20.024;2022-07-23T05:23:45;640.40;1894.40
53368;DHT22;39271;45.618;20.024;2022-07-23T05:26:11;640.50;1868.80
53368;DHT22;39271;45.618;20.024;2022-07-23T05:28:49;640.60;1894.40
53368;DHT22;39271;45.618;20.024;2022-07-23T05:31:38;640.70;1894.40
53368;DHT22;39271;45.618;20.024;2022-07-23T05:34:44;640.80;1894.40
53368;DHT22;39271;45.618;20.024;2022-07-23T05:37:20;665.60;1894.40
53368;DHT22;39271;45.618;20.024;2022-07-23T05:40:20;665.60;1894.40
53368;DHT22;39271;45.618;20.024;2022-07-23T05:42:57;665.80;1868.80
53368;DHT22;39271;45.618;20.024;2022-07-23T05:45:26;665.90;1920.00
53368;DHT22;39271;45.618;20.024;2022-07-23T05:48:06;666.00;1894.40
53368;DHT22;39271;45.618;20.024;2022-07-23T05:50:32;666.20;1817.60
53368;DHT22;39271;45.618;20.024;2022-07-23T05:53:07;666.30;1843.20
53368;DHT22;39271;45.618;20.024;2022-07-23T05:55:48;666.40;1868.80
53368;DHT22;39271;45.618;20.024;2022-07-23T05:58:14;666.50;1843.20
53368;DHT22;39271;45.618;20.024;2022-07-23T06:04:02;691.40;1868.80
53368;DHT22;39271;45.618;20.024;2022-07-23T06:06:27;691.50;1792.00
53368;DHT22;39271;45.618;20.024;2022-07-23T06:08:53;691.60;1792.00
53368;DHT22;39271;45.618;20.024;2022-07-23T06:11:19;691.80;1792.00
53368;DHT22;39271;45.618;20.024;2022-07-23T06:13:45;691.80;1792.00
53368;DHT22;39271;45.618;20.024;2022-07-23T06:16:11;691.90;1792.00
53368;DHT22;39271;45.618;20.024;2022-07-23T06:18:37;692.00;1766.40
53368;DHT22;39271;45.618;20.024;2022-07-23T06:21:02;692.00;1715.20
53368;DHT22;39271;45.618;20.024;2022-07-23T06:23:31;716.80;1664.00
53368;DHT22;39271;45.618;20.024;2022-07-23T06:26:14;716.90;1689.60
53368;DHT22;39271;45.618;20.024;2022-07-23T06:28:49;692.00;1638.40
53368;DHT22;39271;45.618;20.024;2022-07-23T06:31:15;717.10;1536.00
53368;DHT22;39271;45.618;20.024;2022-07-23T06:33:40;717.10;1536.00
53368;DHT22;39271;45.618;20.024;2022-07-23T06:36:06;717.20;1459.20
53368;DHT22;39271;45.618;20.024;2022-07-23T06:38:47;717.40;1587.20
53368;DHT22;39271;45.618;20.024;2022-07-23T06:41:13;717.40;1510.40
53368;DHT22;39271;45.618;20.024;2022-07-23T06:43:39;717.40;1536.00
53368;DHT22;39271;45.618;20.024;2022-07-23T06:46:04;717.50;1484.80
53368;DHT22;39271;45.618;20.024;2022-07-23T06:48:30;717.60;1510.40
53368;DHT22;39271;45.618;20.024;2022-07-23T06:50:56;717.70;1536.00
53368;DHT22;39271;45.618;20.024;2022-07-23T06:53:22;717.70;1587.20
53368;DHT22;39271;45.618;20.024;2022-07-23T06:55:48;742.40;1638.40
53368;DHT22;39271;45.618;20.024;2022-07-23T06:58:19;742.50;1587.20
53368;DHT22;39271;45.618;20.024;2022-07-23T07:04:16;742.70;1459.20
53368;DHT22;39271;45.618;20.024;2022-07-23T07:06:53;743.00;1408.00
53368;DHT22;39271;45.618;20.024;2022-07-23T07:09:25;743.00;1408.00
53368;DHT22;39271;45.618;20.024;2022-07-23T07:12:20;743.10;1356.80
53368;DHT22;39271;45.618;20.024;2022-07-23T07:14:49;743.10;1356.80
53368;DHT22;39271;45.618;20.024;2022-07-23T07:17:25;768.00;1331.20
53368;DHT22;39271;45.618;20.024;2022-07-23T07:19:54;768.10;1459.20
53368;DHT22;39271;45.618;20.024;2022-07-23T07:22:20;768.10;1331.20
53368;DHT22;39271;45.618;20.024;2022-07-23T07:24:48;768.30;1228.80
53368;DHT22;39271;45.618;20.024;2022-07-23T07:27:17;768.30;1382.40
53368;DHT22;39271;45.618;20.024;2022-07-23T07:29:46;768.50;1254.40
53368;DHT22;39271;45.618;20.024;2022-07-23T07:32:14;768.60;1254.40
53368;DHT22;39271;45.618;20.024;2022-07-23T07:34:43;768.60;1228.80
53368;DHT22;39271;45.618;20.024;2022-07-23T07:37:08;768.80;1177.60
53368;DHT22;39271;45.618;20.024;2022-07-23T07:39:37;768.80;1203.20
53368;DHT22;39271;45.618;20.024;2022-07-23T07:42:05;793.60;1152.00
53368;DHT22;39271;45.618;20.024;2022-07-23T07:44:34;793.80;1152.00
53368;DHT22;39271;45.618;20.024;2022-07-23T07:47:00;793.90;1152.00
53368;DHT22;39271;45.618;20.024;2022-07-23T07:49:25;794.00;1228.80
53368;DHT22;39271;45.618;20.024;2022-07-23T07:52:00;794.20;1203.20
53368;DHT22;39271;45.618;20.024;2022-07-23T07:54:29;794.00;1228.80
53368;DHT22;39271;45.618;20.024;2022-07-23T07:57:15;794.00;1228.80
53368;DHT22;39271;45.618;20.024;2022-07-23T07:59:41;793.80;1254.40
53368;DHT22;39271;45.618;20.024;2022-07-23T08:02:10;793.80;1228.80
53368;DHT22;39271;45.618;20.024;2022-07-23T08:04:45;793.70;1228.80
53368;DHT22;39271;45.618;20.024;2022-07-23T08:07:17;793.70;1254.40
53368;DHT22;39271;45.618;20.024;2022-07-23T08:09:45;793.70;1254.40
53368;DHT22;39271;45.618;20.024;2022-07-23T08:15:47;793.70;1177.60
53368;DHT22;39271;45.618;20.024;2022-07-23T08:18:13;793.90;1126.40
53368;DHT22;39271;45.618;20.024;2022-07-23T08:20:38;794.20;1126.40
53368;DHT22;39271;45.618;20.024;2022-07-23T08:23:10;794.30;1100.80
53368;DHT22;39271;45.618;20.024;2022-07-23T08:25:41;794.50;1075.20
53368;DHT22;39271;45.618;20.024;2022-07-23T08:28:12;819.30;1049.60
53368;DHT22;39271;45.618;20.024;2022-07-23T08:33:34;819.70;1126.40
53368;DHT22;39271;45.618;20.024;2022-07-23T08:36:06;819.80;1075.20
53368;DHT22;39271;45.618;20.024;2022-07-23T08:38:33;820.00;1126.40
53368;DHT22;39271;45.618;20.024;2022-07-23T08:41:02;844.80;1177.60
53368;DHT22;39271;45.618;20.024;2022-07-23T08:43:31;844.90;1126.40
53368;DHT22;39271;45.618;20.024;2022-07-23T08:45:59;845.00;1100.80
53368;DHT22;39271;45.618;20.024;2022-07-23T08:48:27;845.10;1075.20
53368;DHT22;39271;45.618;20.024;2022-07-23T08:50:57;845.20;1049.60
53368;DHT22;39271;45.618;20.024;2022-07-23T08:53:25;845.30;1024.00
53368;DHT22;39271;45.618;20.024;2022-07-23T08:55:54;845.40;972.80
53368;DHT22;39271;45.618;20.024;2022-07-23T08:58:21;845.60;998.40
53368;DHT22;39271;45.618;20.024;2022-07-23T09:00:48;845.60;1024.00
53368;DHT22;39271;45.618;20.024;2022-07-23T09:03:29;845.70;1024.00
53368;DHT22;39271;45.618;20.024;2022-07-23T09:05:59;845.70;1024.00
53368;DHT22;39271;45.618;20.024;2022-07-23T09:08:37;845.60;998.40
53368;DHT22;39271;45.618;20.024;2022-07-23T09:11:10;870.40;1024.00
53368;DHT22;39271;45.618;20.024;2022-07-23T09:16:36;870.50;947.20
53368;DHT22;39271;45.618;20.024;2022-07-23T09:19:04;870.60;998.40
53368;DHT22;39271;45.618;20.024;2022-07-23T09:30:23;870.80;1024.00
53368;DHT22;39271;45.618;20.024;2022-07-23T09:33:14;870.90;998.40
53368;DHT22;39271;45.618;20.024;2022-07-23T09:35:54;870.90;998.40
53368;DHT22;39271;45.618;20.024;2022-07-23T09:38:22;870.90;998.40
53368;DHT22;39271;45.618;20.024;2022-07-23T09:41:06;871.00;1024.00
53368;DHT22;39271;45.618;20.024;2022-07-23T09:43:32;871.00;972.80
53368;DHT22;39271;45.618;20.024;2022-07-23T09:46:37;871.00;921.60
53368;DHT22;39271;45.618;20.024;2022-07-23T09:54:37;896.00;921.60
53368;DHT22;39271;45.618;20.024;2022-07-23T09:57:07;896.10;921.60
53368;DHT22;39271;45.618;20.024;2022-07-23T09:59:37;896.20;972.80
53368;DHT22;39271;45.618;20.024;2022-07-23T10:02:07;896.20;896.00
53368;DHT22;39271;45.618;20.024;2022-07-23T10:04:36;896.40;921.60
53368;DHT22;39271;45.618;20.024;2022-07-23T10:07:04;896.50;870.40
53368;DHT22;39271;45.618;20.024;2022-07-23T10:09:34;896.60;896.00
53368;DHT22;39271;45.618;20.024;2022-07-23T10:12:05;896.60;844.80
53368;DHT22;39271;45.618;20.024;2022-07-23T10:14:38;896.60;896.00
53368;DHT22;39271;45.618;20.024;2022-07-23T10:17:05;896.70;844.80
53368;DHT22;39271;45.618;20.024;2022-07-23T10:19:31;896.90;870.40
53368;DHT22;39271;45.618;20.024;2022-07-23T10:22:22;896.90;870.40
53368;DHT22;39271;45.618;20.024;2022-07-23T10:25:02;896.90;819.20
53368;DHT22;39271;45.618;20.024;2022-07-23T10:36:28;921.80;844.80
53368;DHT22;39271;45.618;20.024;2022-07-23T10:39:05;921.90;844.80
53368;DHT22;39271;45.618;20.024;2022-07-23T10:41:39;921.90;793.60
53368;DHT22;39271;45.618;20.024;2022-07-23T10:44:16;921.90;793.60
53368;DHT22;39271;45.618;20.024;2022-07-23T10:47:06;921.90;896.00
53368;DHT22;39271;45.618;20.024;2022-07-23T10:49:53;922.00;819.20
53368;DHT22;39271;45.618;20.024;2022-07-23T10:52:23;922.00;870.40
53368;DHT22;39271;45.618;20.024;2022-07-23T10:57:51;922.10;819.20
53368;DHT22;39271;45.618;20.024;2022-07-23T11:00:22;922.10;819.20
53368;DHT22;39271;45.618;20.024;2022-07-23T11:03:06;922.20;844.80
53368;DHT22;39271;45.618;20.024;2022-07-23T11:05:53;922.30;844.80
53368;DHT22;39271;45.618;20.024;2022-07-23T11:08:19;922.40;844.80
53368;DHT22;39271;45.618;20.024;2022-07-23T11:11:39;922.50;844.80
53368;DHT22;39271;45.618;20.024;2022-07-23T11:13:46;947.30;844.80
53368;DHT22;39271;45.618;20.024;2022-07-23T11:16:17;947.30;844.80
53368;DHT22;39271;45.618;20.024;2022-07-23T11:19:09;947.20;896.00
53368;DHT22;39271;45.618;20.024;2022-07-23T11:24:07;947.40;844.80
53368;DHT22;39271;45.618;20.024;2022-07-23T11:26:49;947.30;844.80
53368;DHT22;39271;45.618;20.024;2022-07-23T11:32:24;947.50;793.60
53368;DHT22;39271;45.618;20.024;2022-07-23T11:34:51;947.60;793.60
53368;DHT22;39271;45.618;20.024;2022-07-23T11:37:42;947.70;768.00
53368;DHT22;39271;45.618;20.024;2022-07-23T11:40:14;947.80;768.00
53368;DHT22;39271;45.618;20.024;2022-07-23T11:43:12;947.80;793.60
53368;DHT22;39271;45.618;20.024;2022-07-23T11:45:39;947.80;768.00
53368;DHT22;39271;45.618;20.024;2022-07-23T11:48:08;947.90;742.40
53368;DHT22;39271;45.618;20.024;2022-07-23T11:50:37;947.90;768.00
53368;DHT22;39271;45.618;20.024;2022-07-23T11:53:28;972.80;742.40
53368;DHT22;39271;45.618;20.024;2022-07-23T11:56:02;948.10;742.40
53368;DHT22;39271;45.618;20.024;2022-07-23T11:58:34;948.10;768.00
53368;DHT22;39271;45.618;20.024;2022-07-23T12:01:11;948.10;691.20
53368;DHT22;39271;45.618;20.024;2022-07-23T12:03:51;972.90;768.00
53368;DHT22;39271;45.618;20.024;2022-07-23T12:06:19;972.80;819.20
53368;DHT22;39271;45.618;20.024;2022-07-23T12:08:54;972.90;870.40
53368;DHT22;39271;45.618;20.024;2022-07-23T12:11:21;972.90;768.00
53368;DHT22;39271;45.618;20.024;2022-07-23T12:17:34;972.90;768.00
53368;DHT22;39271;45.618;20.024;2022-07-23T12:20:12;972.90;768.00
53368;DHT22;39271;45.618;20.024;2022-07-23T12:30:46;972.90;844.80
53368;DHT22;39271;45.618;20.024;2022-07-23T12:36:17;973.00;691.20
53368;DHT22;39271;45.618;20.024;2022-07-23T12:38:48;973.20;716.80
53368;DHT22;39271;45.618;20.024;2022-07-23T12:45:13;973.50;716.80
53368;DHT22;39271;45.618;20.024;2022-07-23T12:47:58;973.50;716.80
53368;DHT22;39271;45.618;20.024;2022-07-23T12:54:06;973.60;742.40
53368;DHT22;39271;45.618;20.024;2022-07-23T12:56:50;973.40;819.20
53368;DHT22;39271;45.618;20.024;2022-07-23T12:59:34;973.40;819.20
53368;DHT22;39271;45.618;20.024;2022-07-23T13:23:17;998.40;742.40
53368;DHT22;39271;45.618;20.024;2022-07-23T13:26:08;998.40;768.00
53368;DHT22;39271;45.618;20.024;2022-07-23T13:29:06;998.50;768.00
53368;DHT22;39271;45.618;20.024;2022-07-23T13:31:49;998.50;793.60
53368;DHT22;39271;45.618;20.024;2022-07-23T13:34:46;998.50;768.00
53368;DHT22;39271;45.618;20.024;2022-07-23T13:37:37;998.60;768.00
53368;DHT22;39271;45.618;20.024;2022-07-23T13:40:09;998.60;691.20
53368;DHT22;39271;45.618;20.024;2022-07-23T13:43:01;998.70;716.80
53368;DHT22;39271;45.618;20.024;2022-07-23T13:45:39;998.70;716.80
53368;DHT22;39271;45.618;20.024;2022-07-23T13:48:17;998.80;691.20
53368;DHT22;39271;45.618;20.024;2022-07-23T13:51:09;998.80;716.80
53368;DHT22;39271;45.618;20.024;2022-07-23T13:53:47;998.90;691.20
53368;DHT22;39271;45.618;20.024;2022-07-23T13:56:36;998.80;691.20
53368;DHT22;39271;45.618;20.024;2022-07-23T13:59:07;998.90;742.40
53368;DHT22;39271;45.618;20.024;2022-07-23T14:01:41;998.90;742.40
53368;DHT22;39271;45.618;20.024;2022-07-23T14:04:30;998.90;716.80
53368;DHT22;39271;45.618;20.024;2022-07-23T14:34:51;999.00;665.60
53368;DHT22;39271;45.618;20.024;2022-07-23T15:15:29;999.00;691.20
53368;DHT22;39271;45.618;20.024;2022-07-23T15:28:58;999.00;691.20
53368;DHT22;39271;45.618;20.024;2022-07-23T15:35:18;999.00;665.60
53368;DHT22;39271;45.618;20.024;2022-07-23T15:38:16;999.00;691.20
53368;DHT22;39271;45.618;20.024;2022-07-23T15:51:27;998.90;716.80
53368;DHT22;39271;45.618;20.024;2022-07-23T15:54:24;998.70;691.20
53368;DHT22;39271;45.618;20.024;2022-07-23T15:57:11;998.70;716.80
53368;DHT22;39271;45.618;20.024;2022-07-23T15:59:46;998.60;716.80
53368;DHT22;39271;45.618;20.024;2022-07-23T16:02:16;998.60;716.80
53368;DHT22;39271;45.618;20.024;2022-07-23T16:05:14;998.60;716.80
53368;DHT22;39271;45.618;20.024;2022-07-23T16:07:42;998.50;716.80
53368;DHT22;39271;45.618;20.024;2022-07-23T16:10:11;998.50;742.40
53368;DHT22;39271;45.618;20.024;2022-07-23T16:12:52;998.50;742.40
53368;DHT22;39271;45.618;20.024;2022-07-23T16:15:39;998.40;793.60
53368;DHT22;39271;45.618;20.024;2022-07-23T16:18:10;998.40;768.00
53368;DHT22;39271;45.618;20.024;2022-07-23T16:21:28;973.70;716.80
53368;DHT22;39271;45.618;20.024;2022-07-23T16:23:56;973.60;768.00
53368;DHT22;39271;45.618;20.024;2022-07-23T16:26:56;973.60;742.40
53368;DHT22;39271;45.618;20.024;2022-07-23T16:29:31;973.60;742.40
53368;DHT22;39271;45.618;20.024;2022-07-23T16:32:04;973.50;742.40
53368;DHT22;39271;45.618;20.024;2022-07-23T16:34:36;973.40;742.40
53368;DHT22;39271;45.618;20.024;2022-07-23T16:37:07;973.40;768.00
53368;DHT22;39271;45.618;20.024;2022-07-23T16:39:38;973.30;793.60
53368;DHT22;39271;45.618;20.024;2022-07-23T16:42:22;973.30;793.60
53368;DHT22;39271;45.618;20.024;2022-07-23T16:45:55;973.30;819.20
53368;DHT22;39271;45.618;20.024;2022-07-23T16:48:38;973.10;793.60
53368;DHT22;39271;45.618;20.024;2022-07-23T16:51:24;973.00;819.20
53368;DHT22;39271;45.618;20.024;2022-07-23T16:54:02;972.90;793.60
53368;DHT22;39271;45.618;20.024;2022-07-23T16:56:57;972.90;819.20
53368;DHT22;39271;45.618;20.024;2022-07-23T16:59:40;972.80;844.80
53368;DHT22;39271;45.618;20.024;2022-07-23T17:02:08;948.10;768.00
53368;DHT22;39271;45.618;20.024;2022-07-23T17:04:45;948.00;793.60
53368;DHT22;39271;45.618;20.024;2022-07-23T17:07:40;948.00;768.00
53368;DHT22;39271;45.618;20.024;2022-07-23T17:10:37;947.80;793.60
53368;DHT22;39271;45.618;20.024;2022-07-23T17:13:56;947.80;793.60
53368;DHT22;39271;45.618;20.024;2022-07-23T17:16:34;947.60;819.20
53368;DHT22;39271;45.618;20.024;2022-07-23T17:19:06;947.40;819.20
53368;DHT22;39271;45.618;20.024;2022-07-23T17:24:59;922.50;870.40
53368;DHT22;39271;45.618;20.024;2022-07-23T17:27:37;922.30;870.40
53368;DHT22;39271;45.618;20.024;2022-07-23T17:30:12;922.10;896.00
53368;DHT22;39271;45.618;20.024;2022-07-23T17:32:41;921.90;921.60
53368;DHT22;39271;45.618;20.024;2022-07-23T17:35:12;921.80;972.80
53368;DHT22;39271;45.618;20.024;2022-07-23T17:37:41;921.70;972.80
53368;DHT22;39271;45.618;20.024;2022-07-23T17:40:12;921.70;947.20
53368;DHT22;39271;45.618;20.024;2022-07-23T17:42:41;921.60;947.20
53368;DHT22;39271;45.618;20.024;2022-07-23T17:45:10;896.90;921.60
53368;DHT22;39271;45.618;20.024;2022-07-23T17:47:43;896.80;921.60
53368;DHT22;39271;45.618;20.024;2022-07-23T17:50:12;896.60;921.60
53368;DHT22;39271;45.618;20.024;2022-07-23T17:52:50;896.60;947.20
53368;DHT22;39271;45.618;20.024;2022-07-23T17:55:17;896.40;947.20
53368;DHT22;39271;45.618;20.024;2022-07-23T17:57:43;896.10;998.40
53368;DHT22;39271;45.618;20.024;2022-07-23T18:00:14;896.00;972.80
53368;DHT22;39271;45.618;20.024;2022-07-23T18:02:43;871.20;1024.00
53368;DHT22;39271;45.618;20.024;2022-07-23T18:05:10;871.10;1024.00
53368;DHT22;39271;45.618;20.024;2022-07-23T18:07:36;871.00;1049.60
53368;DHT22;39271;45.618;20.024;2022-07-23T18:10:06;870.90;1049.60
53368;DHT22;39271;45.618;20.024;2022-07-23T18:12:34;870.40;1075.20
53368;DHT22;39271;45.618;20.024;2022-07-23T18:15:00;870.60;1075.20
53368;DHT22;39271;45.618;20.024;2022-07-23T18:17:29;870.60;1100.80
53368;DHT22;39271;45.618;20.024;2022-07-23T18:19:54;870.50;1075.20
53368;DHT22;39271;45.618;20.024;2022-07-23T18:22:23;870.40;1075.20
53368;DHT22;39271;45.618;20.024;2022-07-23T18:24:52;845.70;1100.80
53368;DHT22;39271;45.618;20.024;2022-07-23T18:27:17;845.60;1126.40
53368;DHT22;39271;45.618;20.024;2022-07-23T18:29:59;845.50;1100.80
53368;DHT22;39271;45.618;20.024;2022-07-23T18:32:30;845.40;1152.00
53368;DHT22;39271;45.618;20.024;2022-07-23T18:35:11;845.40;1126.40
53368;DHT22;39271;45.618;20.024;2022-07-23T18:37:41;845.30;1152.00
53368;DHT22;39271;45.618;20.024;2022-07-23T18:40:18;845.10;1126.40
53368;DHT22;39271;45.618;20.024;2022-07-23T18:42:45;845.00;1152.00
53368;DHT22;39271;45.618;20.024;2022-07-23T18:45:12;844.90;1152.00
53368;DHT22;39271;45.618;20.024;2022-07-23T18:47:39;819.90;1152.00
53368;DHT22;39271;45.618;20.024;2022-07-23T18:50:07;819.90;1177.60
53368;DHT22;39271;45.618;20.024;2022-07-23T18:52:34;820.00;1152.00
53368;DHT22;39271;45.618;20.024;2022-07-23T18:55:03;820.00;1152.00
53368;DHT22;39271;45.618;20.024;2022-07-23T18:57:29;819.90;1177.60
53368;DHT22;39271;45.618;20.024;2022-07-23T18:59:55;819.90;1203.20
53368;DHT22;39271;45.618;20.024;2022-07-23T19:02:27;819.80;1177.60